sensor_id;sensor_type;location;lat;lon;timestamp;temperature;humidity
47310;DHT22;33046;52.270;6.832;2023-06-01T00:00:50;16.60;84.30
47310;DHT22;33046;52.270;6.832;2023-06-01T01:25:21;16.10;87.50
47310;DHT22;33046;52.270;6.832;2023-06-01T01:27:39;16.10;87.30
47310;DHT22;33046;52.270;6.832;2023-06-01T01:29:52;16.00;87.30
47310;DHT22;33046;52.270;6.832;2023-06-01T01:32:00;16.00;87.50
47310;DHT22;33046;52.270;6.832;2023-06-01T01:34:09;16.00;87.60
47310;DHT22;33046;52.270;6.832;2023-06-01T01:36:17;16.10;87.80
47310;DHT22;33046;52.270;6.832;2023-06-01T01:38:23;16.10;87.40
47310;DHT22;33046;52.270;6.832;2023-06-01T01:40:30;16.00;87.40
47310;DHT22;33046;52.270;6.832;2023-06-01T01:42:37;16.00;87.50
47310;DHT22;33046;52.270;6.832;2023-06-01T01:44:44;16.00;87.80
47310;DHT22;33046;52.270;6.832;2023-06-01T01:46:58;16.00;87.80
47310;DHT22;33046;52.270;6.832;2023-06-01T01:49:10;16.00;87.80
47310;DHT22;33046;52.270;6.832;2023-06-01T01:51:21;16.00;87.80
47310;DHT22;33046;52.270;6.832;2023-06-01T01:53:29;16.00;87.80
47310;DHT22;33046;52.270;6.832;2023-06-01T01:55:37;16.00;87.80
47310;DHT22;33046;52.270;6.832;2023-06-01T01:57:44;16.00;88.00
47310;DHT22;33046;52.270;6.832;2023-06-01T01:59:52;16.00;88.00
47310;DHT22;33046;52.270;6.832;2023-06-01T02:02:02;15.90;87.90
47310;DHT22;33046;52.270;6.832;2023-06-01T02:04:09;15.90;88.20
47310;DHT22;33046;52.270;6.832;2023-06-01T02:06:16;15.90;87.90
47310;DHT22;33046;52.270;6.832;2023-06-01T02:08:22;15.90;87.40
47310;DHT22;33046;52.270;6.832;2023-06-01T02:10:29;15.80;87.30
47310;DHT22;33046;52.270;6.832;2023-06-01T02:12:36;15.80;87.20
47310;DHT22;33046;52.270;6.832;2023-06-01T02:14:43;15.80;87.30
47310;DHT22;33046;52.270;6.832;2023-06-01T02:16:50;15.80;87.50
47310;DHT22;33046;52.270;6.832;2023-06-01T02:18:59;15.90;87.30
47310;DHT22;33046;52.270;6.832;2023-06-01T02:21:05;15.90;87.70
47310;DHT22;33046;52.270;6.832;2023-06-01T02:23:12;15.80;87.80
47310;DHT22;33046;52.270;6.832;2023-06-01T02:25:19;15.70;87.80
47310;DHT22;33046;52.270;6.832;2023-06-01T02:27:26;15.70;87.80
47310;DHT22;33046;52.270;6.832;2023-06-01T02:29:33;15.70;87.80
47310;DHT22;33046;52.270;6.832;2023-06-01T02:31:40;15.80;87.80
47310;DHT22;33046;52.270;6.832;2023-06-01T02:33:47;15.80;87.70
47310;DHT22;33046;52.270;6.832;2023-06-01T02:35:55;15.80;87.80
47310;DHT22;33046;52.270;6.832;2023-06-01T02:38:02;15.70;87.80
47310;DHT22;33046;52.270;6.832;2023-06-01T02:40:10;15.70;87.70
47310;DHT22;33046;52.270;6.832;2023-06-01T02:42:17;15.70;87.70
47310;DHT22;33046;52.270;6.832;2023-06-01T02:44:24;15.70;88.10
47310;DHT22;33046;52.270;6.832;2023-06-01T02:46:30;15.70;88.00
47310;DHT22;33046;52.270;6.832;2023-06-01T02:48:37;15.70;88.00
47310;DHT22;33046;52.270;6.832;2023-06-01T02:50:46;15.70;88.30
47310;DHT22;33046;52.270;6.832;2023-06-01T02:52:54;15.70;88.20
47310;DHT22;33046;52.270;6.832;2023-06-01T02:55:01;15.60;88.00
47310;DHT22;33046;52.270;6.832;2023-06-01T02:57:46;15.70;87.90
47310;DHT22;33046;52.270;6.832;2023-06-01T02:59:53;15.70;88.10
47310;DHT22;33046;52.270;6.832;2023-06-01T03:02:00;15.60;88.20
47310;DHT22;33046;52.270;6.832;2023-06-01T03:04:08;15.60;88.50
47310;DHT22;33046;52.270;6.832;2023-06-01T03:06:15;15.50;88.60
47310;DHT22;33046;52.270;6.832;2023-06-01T03:08:49;15.50;88.90
47310;DHT22;33046;52.270;6.832;2023-06-01T03:11:16;15.50;88.80
47310;DHT22;33046;52.270;6.832;2023-06-01T03:13:23;15.50;88.40
47310;DHT22;33046;52.270;6.832;2023-06-01T03:15:30;15.40;88.70
47310;DHT22;33046;52.270;6.832;2023-06-01T03:17:36;15.40;88.80
47310;DHT22;33046;52.270;6.832;2023-06-01T03:19:44;15.40;88.90
47310;DHT22;33046;52.270;6.832;2023-06-01T03:22:01;15.40;88.80
47310;DHT22;33046;52.270;6.832;2023-06-01T03:24:09;15.40;88.70
47310;DHT22;33046;52.270;6.832;2023-06-01T03:26:16;15.40;88.70
47310;DHT22;33046;52.270;6.832;2023-06-01T03:28:23;15.50;89.00
47310;DHT22;33046;52.270;6.832;2023-06-01T03:30:30;15.40;89.00
47310;DHT22;33046;52.270;6.832;2023-06-01T03:32:36;15.30;89.00
47310;DHT22;33046;52.270;6.832;2023-06-01T03:34:43;15.30;88.90
47310;DHT22;33046;52.270;6.832;2023-06-01T03:36:50;15.30;88.80
47310;DHT22;33046;52.270;6.832;2023-06-01T03:38:57;15.40;88.90
47310;DHT22;33046;52.270;6.832;2023-06-01T03:41:07;15.40;88.50
47310;DHT22;33046;52.270;6.832;2023-06-01T03:43:14;15.40;88.50
47310;DHT22;33046;52.270;6.832;2023-06-01T03:45:22;15.30;88.60
47310;DHT22;33046;52.270;6.832;2023-06-01T03:47:28;15.30;88.60
47310;DHT22;33046;52.270;6.832;2023-06-01T03:49:35;15.20;88.50
47310;DHT22;33046;52.270;6.832;2023-06-01T03:51:46;15.30;88.70
47310;DHT22;33046;52.270;6.832;2023-06-01T03:53:53;15.30;88.60
47310;DHT22;33046;52.270;6.832;2023-06-01T03:56:00;15.30;88.50
47310;DHT22;33046;52.270;6.832;2023-06-01T03:58:13;15.20;88.50
47310;DHT22;33046;52.270;6.832;2023-06-01T04:00:20;15.30;88.50
47310;DHT22;33046;52.270;6.832;2023-06-01T04:02:30;15.30;88.50
47310;DHT22;33046;52.270;6.832;2023-06-01T04:04:37;15.30;88.50
47310;DHT22;33046;52.270;6.832;2023-06-01T04:06:43;15.30;88.80
47310;DHT22;33046;52.270;6.832;2023-06-01T04:08:51;15.30;88.90
47310;DHT22;33046;52.270;6.832;2023-06-01T04:10:58;15.30;88.70
47310;DHT22;33046;52.270;6.832;2023-06-01T04:13:05;15.20;88.50
47310;DHT22;33046;52.270;6.832;2023-06-01T04:15:15;15.20;88.80
47310;DHT22;33046;52.270;6.832;2023-06-01T04:17:22;15.10;88.80
47310;DHT22;33046;52.270;6.832;2023-06-01T04:19:29;15.10;88.90
47310;DHT22;33046;52.270;6.832;2023-06-01T04:21:41;15.20;88.90
47310;DHT22;33046;52.270;6.832;2023-06-01T04:23:48;15.20;89.10
47310;DHT22;33046;52.270;6.832;2023-06-01T04:25:55;15.20;88.80
47310;DHT22;33046;52.270;6.832;2023-06-01T04:28:02;15.10;88.80
47310;DHT22;33046;52.270;6.832;2023-06-01T04:30:14;15.20;89.10
47310;DHT22;33046;52.270;6.832;2023-06-01T04:32:22;15.20;88.90
47310;DHT22;33046;52.270;6.832;2023-06-01T04:34:31;15.10;89.00
47310;DHT22;33046;52.270;6.832;2023-06-01T04:36:38;15.10;89.10
47310;DHT22;33046;52.270;6.832;2023-06-01T04:38:45;15.20;89.30
47310;DHT22;33046;52.270;6.832;2023-06-01T04:40:52;15.20;89.30
47310;DHT22;33046;52.270;6.832;2023-06-01T04:42:59;15.20;89.50
47310;DHT22;33046;52.270;6.832;2023-06-01T04:45:07;15.20;89.50
47310;DHT22;33046;52.270;6.832;2023-06-01T04:47:16;15.20;89.40
47310;DHT22;33046;52.270;6.832;2023-06-01T04:49:26;15.30;89.30
47310;DHT22;33046;52.270;6.832;2023-06-01T04:51:33;15.30;89.30
47310;DHT22;33046;52.270;6.832;2023-06-01T04:53:40;15.30;89.10
47310;DHT22;33046;52.270;6.832;2023-06-01T04:55:47;15.30;89.10
47310;DHT22;33046;52.270;6.832;2023-06-01T04:57:53;15.30;88.90
47310;DHT22;33046;52.270;6.832;2023-06-01T05:00:01;15.40;89.60
47310;DHT22;33046;52.270;6.832;2023-06-01T05:02:08;15.40;89.30
47310;DHT22;33046;52.270;6.832;2023-06-01T05:04:16;15.30;89.70
47310;DHT22;33046;52.270;6.832;2023-06-01T05:06:24;15.40;89.80
47310;DHT22;33046;52.270;6.832;2023-06-01T05:08:32;15.40;89.50
47310;DHT22;33046;52.270;6.832;2023-06-01T05:10:39;15.40;89.30
47310;DHT22;33046;52.270;6.832;2023-06-01T05:12:45;15.40;89.40
47310;DHT22;33046;52.270;6.832;2023-06-01T05:14:54;15.40;89.30
47310;DHT22;33046;52.270;6.832;2023-06-01T05:17:01;15.40;89.10
47310;DHT22;33046;52.270;6.832;2023-06-01T05:19:08;15.50;89.30
47310;DHT22;33046;52.270;6.832;2023-06-01T05:21:16;15.40;89.10
47310;DHT22;33046;52.270;6.832;2023-06-01T05:23:25;15.40;89.30
47310;DHT22;33046;52.270;6.832;2023-06-01T05:25:32;15.50;89.30
47310;DHT22;33046;52.270;6.832;2023-06-01T05:27:39;15.50;89.40
47310;DHT22;33046;52.270;6.832;2023-06-01T05:29:46;15.50;89.80
47310;DHT22;33046;52.270;6.832;2023-06-01T05:31:53;15.60;89.60
47310;DHT22;33046;52.270;6.832;2023-06-01T05:34:00;15.60;89.60
47310;DHT22;33046;52.270;6.832;2023-06-01T05:36:09;15.60;89.30
47310;DHT22;33046;52.270;6.832;2023-06-01T05:38:17;15.60;89.20
47310;DHT22;33046;52.270;6.832;2023-06-01T05:40:24;15.70;88.90
47310;DHT22;33046;52.270;6.832;2023-06-01T05:42:31;15.60;88.60
47310;DHT22;33046;52.270;6.832;2023-06-01T05:44:38;15.60;88.40
47310;DHT22;33046;52.270;6.832;2023-06-01T05:46:45;15.70;88.30
47310;DHT22;33046;52.270;6.832;2023-06-01T05:48:51;15.70;87.90
47310;DHT22;33046;52.270;6.832;2023-06-01T05:50:59;15.70;88.00
47310;DHT22;33046;52.270;6.832;2023-06-01T05:53:06;15.70;88.00
47310;DHT22;33046;52.270;6.832;2023-06-01T05:55:14;15.70;87.30
47310;DHT22;33046;52.270;6.832;2023-06-01T05:57:21;15.70;87.30
47310;DHT22;33046;52.270;6.832;2023-06-01T05:59:28;15.70;87.90
47310;DHT22;33046;52.270;6.832;2023-06-01T06:01:35;15.70;87.80
47310;DHT22;33046;52.270;6.832;2023-06-01T06:03:42;15.70;88.00
47310;DHT22;33046;52.270;6.832;2023-06-01T06:05:49;15.70;88.30
47310;DHT22;33046;52.270;6.832;2023-06-01T06:07:56;15.70;87.60
47310;DHT22;33046;52.270;6.832;2023-06-01T06:10:03;15.80;88.00
47310;DHT22;33046;52.270;6.832;2023-06-01T06:12:12;15.80;87.50
47310;DHT22;33046;52.270;6.832;2023-06-01T06:14:19;15.70;87.80
47310;DHT22;33046;52.270;6.832;2023-06-01T06:16:25;15.80;87.90
47310;DHT22;33046;52.270;6.832;2023-06-01T06:18:33;15.70;88.00
47310;DHT22;33046;52.270;6.832;2023-06-01T06:20:40;15.80;87.80
47310;DHT22;33046;52.270;6.832;2023-06-01T06:22:49;15.70;88.00
47310;DHT22;33046;52.270;6.832;2023-06-01T06:24:56;15.70;88.20
47310;DHT22;33046;52.270;6.832;2023-06-01T06:27:03;15.70;88.20
47310;DHT22;33046;52.270;6.832;2023-06-01T06:29:11;15.70;88.10
47310;DHT22;33046;52.270;6.832;2023-06-01T06:31:18;15.80;88.10
47310;DHT22;33046;52.270;6.832;2023-06-01T06:33:25;15.90;87.70
47310;DHT22;33046;52.270;6.832;2023-06-01T06:35:31;15.80;87.80
47310;DHT22;33046;52.270;6.832;2023-06-01T06:37:39;15.80;88.00
47310;DHT22;33046;52.270;6.832;2023-06-01T06:39:46;15.70;88.00
47310;DHT22;33046;52.270;6.832;2023-06-01T06:41:52;15.80;87.80
47310;DHT22;33046;52.270;6.832;2023-06-01T06:43:59;15.90;87.80
47310;DHT22;33046;52.270;6.832;2023-06-01T06:46:07;15.90;87.90
47310;DHT22;33046;52.270;6.832;2023-06-01T06:48:14;15.80;88.20
47310;DHT22;33046;52.270;6.832;2023-06-01T06:50:21;15.70;88.30
47310;DHT22;33046;52.270;6.832;2023-06-01T06:52:28;15.80;88.30
47310;DHT22;33046;52.270;6.832;2023-06-01T06:54:35;15.80;88.40
47310;DHT22;33046;52.270;6.832;2023-06-01T06:56:42;15.80;88.40
47310;DHT22;33046;52.270;6.832;2023-06-01T06:58:49;15.80;88.60
47310;DHT22;33046;52.270;6.832;2023-06-01T07:01:02;15.90;88.70
47310;DHT22;33046;52.270;6.832;2023-06-01T07:03:10;16.00;88.80
47310;DHT22;33046;52.270;6.832;2023-06-01T07:05:17;16.00;88.20
47310;DHT22;33046;52.270;6.832;2023-06-01T07:07:24;16.00;88.50
47310;DHT22;33046;52.270;6.832;2023-06-01T07:09:31;16.00;88.20
47310;DHT22;33046;52.270;6.832;2023-06-01T07:11:41;16.00;88.10
47310;DHT22;33046;52.270;6.832;2023-06-01T07:13:48;16.00;88.10
47310;DHT22;33046;52.270;6.832;2023-06-01T07:15:55;16.00;88.00
47310;DHT22;33046;52.270;6.832;2023-06-01T07:18:02;16.00;88.00
47310;DHT22;33046;52.270;6.832;2023-06-01T07:20:10;16.10;88.20
47310;DHT22;33046;52.270;6.832;2023-06-01T07:22:17;16.10;88.40
47310;DHT22;33046;52.270;6.832;2023-06-01T07:24:24;16.10;88.50
47310;DHT22;33046;52.270;6.832;2023-06-01T07:26:31;16.10;88.70
47310;DHT22;33046;52.270;6.832;2023-06-01T07:28:38;16.10;89.00
47310;DHT22;33046;52.270;6.832;2023-06-01T07:30:44;16.10;88.10
47310;DHT22;33046;52.270;6.832;2023-06-01T07:32:51;16.10;88.00
47310;DHT22;33046;52.270;6.832;2023-06-01T07:34:58;16.20;88.40
47310;DHT22;33046;52.270;6.832;2023-06-01T07:37:06;16.20;88.80
47310;DHT22;33046;52.270;6.832;2023-06-01T07:39:21;16.20;88.50
47310;DHT22;33046;52.270;6.832;2023-06-01T07:41:29;16.20;88.50
47310;DHT22;33046;52.270;6.832;2023-06-01T07:43:36;16.30;88.40
47310;DHT22;33046;52.270;6.832;2023-06-01T07:45:43;16.30;88.70
47310;DHT22;33046;52.270;6.832;2023-06-01T07:47:49;16.30;88.90
47310;DHT22;33046;52.270;6.832;2023-06-01T07:49:56;16.30;88.80
47310;DHT22;33046;52.270;6.832;2023-06-01T07:52:04;16.30;88.60
47310;DHT22;33046;52.270;6.832;2023-06-01T07:54:12;16.40;88.40
47310;DHT22;33046;52.270;6.832;2023-06-01T07:56:19;16.30;88.90
47310;DHT22;33046;52.270;6.832;2023-06-01T07:58:26;16.30;88.30
47310;DHT22;33046;52.270;6.832;2023-06-01T08:00:33;16.30;89.20
47310;DHT22;33046;52.270;6.832;2023-06-01T08:02:39;16.40;88.50
47310;DHT22;33046;52.270;6.832;2023-06-01T08:04:46;16.30;88.60
47310;DHT22;33046;52.270;6.832;2023-06-01T08:06:53;16.30;88.40
47310;DHT22;33046;52.270;6.832;2023-06-01T08:09:00;16.40;88.60
47310;DHT22;33046;52.270;6.832;2023-06-01T08:11:09;16.50;88.90
47310;DHT22;33046;52.270;6.832;2023-06-01T08:13:16;16.50;88.30
47310;DHT22;33046;52.270;6.832;2023-06-01T08:15:23;16.50;89.40
47310;DHT22;33046;52.270;6.832;2023-06-01T08:17:30;16.60;89.30
47310;DHT22;33046;52.270;6.832;2023-06-01T08:19:37;16.60;89.50
47310;DHT22;33046;52.270;6.832;2023-06-01T08:21:44;16.60;89.00
47310;DHT22;33046;52.270;6.832;2023-06-01T08:23:52;16.60;88.30
47310;DHT22;33046;52.270;6.832;2023-06-01T08:25:58;16.50;88.30
47310;DHT22;33046;52.270;6.832;2023-06-01T08:28:07;16.60;88.70
47310;DHT22;33046;52.270;6.832;2023-06-01T08:30:14;16.60;88.80
47310;DHT22;33046;52.270;6.832;2023-06-01T08:32:20;16.70;89.00
47310;DHT22;33046;52.270;6.832;2023-06-01T08:34:28;16.70;89.20
47310;DHT22;33046;52.270;6.832;2023-06-01T08:36:34;16.70;88.90
47310;DHT22;33046;52.270;6.832;2023-06-01T08:38:41;16.70;89.00
47310;DHT22;33046;52.270;6.832;2023-06-01T08:40:48;16.80;89.80
47310;DHT22;33046;52.270;6.832;2023-06-01T08:42:58;16.70;89.80
47310;DHT22;33046;52.270;6.832;2023-06-01T08:45:07;16.70;89.30
47310;DHT22;33046;52.270;6.832;2023-06-01T08:47:14;16.70;89.80
47310;DHT22;33046;52.270;6.832;2023-06-01T08:49:22;16.70;89.80
47310;DHT22;33046;52.270;6.832;2023-06-01T08:51:32;16.80;89.80
47310;DHT22;33046;52.270;6.832;2023-06-01T08:53:39;16.80;90.10
47310;DHT22;33046;52.270;6.832;2023-06-01T08:55:50;16.70;89.70
47310;DHT22;33046;52.270;6.832;2023-06-01T08:57:57;16.70;90.00
47310;DHT22;33046;52.270;6.832;2023-06-01T09:00:10;16.70;90.00
47310;DHT22;33046;52.270;6.832;2023-06-01T09:02:18;16.60;90.00
47310;DHT22;33046;52.270;6.832;2023-06-01T09:04:25;16.70;90.00
47310;DHT22;33046;52.270;6.832;2023-06-01T09:06:32;16.80;90.00
47310;DHT22;33046;52.270;6.832;2023-06-01T09:08:39;16.80;90.10
47310;DHT22;33046;52.270;6.832;2023-06-01T09:10:46;16.80;90.20
47310;DHT22;33046;52.270;6.832;2023-06-01T09:12:53;16.80;90.30
47310;DHT22;33046;52.270;6.832;2023-06-01T09:15:12;16.80;90.00
47310;DHT22;33046;52.270;6.832;2023-06-01T09:17:23;16.90;90.20
47310;DHT22;33046;52.270;6.832;2023-06-01T09:19:41;16.80;90.10
47310;DHT22;33046;52.270;6.832;2023-06-01T09:21:57;16.90;90.10
47310;DHT22;33046;52.270;6.832;2023-06-01T09:24:17;16.90;90.20
47310;DHT22;33046;52.270;6.832;2023-06-01T09:26:26;16.90;90.30
47310;DHT22;33046;52.270;6.832;2023-06-01T09:28:52;16.80;90.50
47310;DHT22;33046;52.270;6.832;2023-06-01T09:31:00;16.90;90.20
47310;DHT22;33046;52.270;6.832;2023-06-01T09:33:10;16.90;90.50
47310;DHT22;33046;52.270;6.832;2023-06-01T09:35:37;16.80;90.30
47310;DHT22;33046;52.270;6.832;2023-06-01T09:37:54;16.80;90.20
47310;DHT22;33046;52.270;6.832;2023-06-01T09:40:01;16.90;90.10
47310;DHT22;33046;52.270;6.832;2023-06-01T09:42:09;16.90;90.10
47310;DHT22;33046;52.270;6.832;2023-06-01T09:44:24;16.90;90.10
47310;DHT22;33046;52.270;6.832;2023-06-01T09:46:32;17.00;90.20
47310;DHT22;33046;52.270;6.832;2023-06-01T09:48:40;17.00;90.00
47310;DHT22;33046;52.270;6.832;2023-06-01T09:50:47;17.00;90.00
47310;DHT22;33046;52.270;6.832;2023-06-01T09:52:57;17.10;90.00
47310;DHT22;33046;52.270;6.832;2023-06-01T09:55:06;17.00;90.00
47310;DHT22;33046;52.270;6.832;2023-06-01T09:57:20;17.00;89.80
47310;DHT22;33046;52.270;6.832;2023-06-01T09:59:28;17.00;90.00
47310;DHT22;33046;52.270;6.832;2023-06-01T10:01:37;17.00;90.10
47310;DHT22;33046;52.270;6.832;2023-06-01T10:03:44;17.10;89.20
47310;DHT22;33046;52.270;6.832;2023-06-01T10:05:52;17.10;89.40
47310;DHT22;33046;52.270;6.832;2023-06-01T10:08:00;17.10;89.00
47310;DHT22;33046;52.270;6.832;2023-06-01T10:10:08;17.20;88.40
47310;DHT22;33046;52.270;6.832;2023-06-01T10:12:15;17.20;87.70
47310;DHT22;33046;52.270;6.832;2023-06-01T10:14:24;17.40;88.50
47310;DHT22;33046;52.270;6.832;2023-06-01T10:16:32;17.50;88.60
47310;DHT22;33046;52.270;6.832;2023-06-01T10:18:41;17.50;87.30
47310;DHT22;33046;52.270;6.832;2023-06-01T10:20:48;17.60;86.70
47310;DHT22;33046;52.270;6.832;2023-06-01T10:22:56;17.60;86.80
47310;DHT22;33046;52.270;6.832;2023-06-01T10:25:03;17.70;86.40
47310;DHT22;33046;52.270;6.832;2023-06-01T10:27:18;17.80;86.30
47310;DHT22;33046;52.270;6.832;2023-06-01T10:29:28;17.90;85.50
47310;DHT22;33046;52.270;6.832;2023-06-01T10:31:37;18.00;84.80
47310;DHT22;33046;52.270;6.832;2023-06-01T10:33:55;18.00;83.90
47310;DHT22;33046;52.270;6.832;2023-06-01T10:36:02;18.10;84.50
47310;DHT22;33046;52.270;6.832;2023-06-01T10:38:22;18.20;83.50
47310;DHT22;33046;52.270;6.832;2023-06-01T10:40:29;18.20;84.20
47310;DHT22;33046;52.270;6.832;2023-06-01T10:42:38;18.30;84.60
47310;DHT22;33046;52.270;6.832;2023-06-01T10:44:45;18.30;83.20
47310;DHT22;33046;52.270;6.832;2023-06-01T10:46:52;18.40;82.20
47310;DHT22;33046;52.270;6.832;2023-06-01T10:49:01;18.40;82.60
47310;DHT22;33046;52.270;6.832;2023-06-01T10:51:19;18.50;82.30
47310;DHT22;33046;52.270;6.832;2023-06-01T10:53:28;18.60;83.60
47310;DHT22;33046;52.270;6.832;2023-06-01T10:55:35;18.60;82.60
47310;DHT22;33046;52.270;6.832;2023-06-01T10:57:43;18.70;83.20
47310;DHT22;33046;52.270;6.832;2023-06-01T11:00:10;18.80;82.50
47310;DHT22;33046;52.270;6.832;2023-06-01T11:02:17;18.90;81.30
47310;DHT22;33046;52.270;6.832;2023-06-01T11:04:36;18.90;81.10
47310;DHT22;33046;52.270;6.832;2023-06-01T11:06:43;19.00;79.80
47310;DHT22;33046;52.270;6.832;2023-06-01T11:08:53;19.10;79.90
47310;DHT22;33046;52.270;6.832;2023-06-01T11:11:01;19.20;80.50
47310;DHT22;33046;52.270;6.832;2023-06-01T11:13:11;19.30;81.20
47310;DHT22;33046;52.270;6.832;2023-06-01T11:15:18;19.30;79.80
47310;DHT22;33046;52.270;6.832;2023-06-01T11:17:27;19.30;80.00
47310;DHT22;33046;52.270;6.832;2023-06-01T11:19:36;19.40;80.30
47310;DHT22;33046;52.270;6.832;2023-06-01T11:21:43;19.50;79.10
47310;DHT22;33046;52.270;6.832;2023-06-01T11:23:51;19.40;78.50
47310;DHT22;33046;52.270;6.832;2023-06-01T11:25:59;19.50;78.40
47310;DHT22;33046;52.270;6.832;2023-06-01T11:28:08;19.60;78.90
47310;DHT22;33046;52.270;6.832;2023-06-01T11:30:19;19.80;79.40
47310;DHT22;33046;52.270;6.832;2023-06-01T11:32:26;19.80;77.40
47310;DHT22;33046;52.270;6.832;2023-06-01T11:34:36;19.80;76.60
47310;DHT22;33046;52.270;6.832;2023-06-01T11:36:45;19.90;77.80
47310;DHT22;33046;52.270;6.832;2023-06-01T11:38:53;19.90;77.50
47310;DHT22;33046;52.270;6.832;2023-06-01T11:41:02;19.90;76.10
47310;DHT22;33046;52.270;6.832;2023-06-01T11:43:09;20.00;76.30
47310;DHT22;33046;52.270;6.832;2023-06-01T11:45:16;20.10;77.20
47310;DHT22;33046;52.270;6.832;2023-06-01T11:47:27;20.00;78.40
47310;DHT22;33046;52.270;6.832;2023-06-01T11:49:43;20.10;77.90
47310;DHT22;33046;52.270;6.832;2023-06-01T11:51:51;20.10;76.40
47310;DHT22;33046;52.270;6.832;2023-06-01T11:54:00;20.10;78.10
47310;DHT22;33046;52.270;6.832;2023-06-01T11:56:07;20.10;77.40
47310;DHT22;33046;52.270;6.832;2023-06-01T11:58:20;20.20;77.40
47310;DHT22;33046;52.270;6.832;2023-06-01T12:00:27;20.20;76.70
47310;DHT22;33046;52.270;6.832;2023-06-01T12:02:35;20.20;75.20
47310;DHT22;33046;52.270;6.832;2023-06-01T12:04:54;20.20;76.20
47310;DHT22;33046;52.270;6.832;2023-06-01T12:07:05;20.30;75.80
47310;DHT22;33046;52.270;6.832;2023-06-01T12:09:12;20.40;76.30
47310;DHT22;33046;52.270;6.832;2023-06-01T12:11:21;20.40;76.00
47310;DHT22;33046;52.270;6.832;2023-06-01T12:13:29;20.40;76.70
47310;DHT22;33046;52.270;6.832;2023-06-01T12:15:36;20.40;76.30
47310;DHT22;33046;52.270;6.832;2023-06-01T12:17:46;20.50;75.90
47310;DHT22;33046;52.270;6.832;2023-06-01T12:19:55;20.60;75.30
47310;DHT22;33046;52.270;6.832;2023-06-01T12:22:02;20.50;76.30
47310;DHT22;33046;52.270;6.832;2023-06-01T12:24:08;20.50;76.10
47310;DHT22;33046;52.270;6.832;2023-06-01T12:26:15;20.60;77.20
47310;DHT22;33046;52.270;6.832;2023-06-01T12:28:23;20.70;77.50
47310;DHT22;33046;52.270;6.832;2023-06-01T12:30:30;20.70;75.80
47310;DHT22;33046;52.270;6.832;2023-06-01T12:32:40;20.80;76.90
47310;DHT22;33046;52.270;6.832;2023-06-01T12:35:03;20.60;76.10
47310;DHT22;33046;52.270;6.832;2023-06-01T12:37:12;20.70;77.00
47310;DHT22;33046;52.270;6.832;2023-06-01T12:39:32;20.60;77.30
47310;DHT22;33046;52.270;6.832;2023-06-01T12:41:47;20.60;77.50
47310;DHT22;33046;52.270;6.832;2023-06-01T12:43:54;20.60;77.50
47310;DHT22;33046;52.270;6.832;2023-06-01T12:46:01;20.50;76.90
47310;DHT22;33046;52.270;6.832;2023-06-01T12:48:08;20.50;77.20
47310;DHT22;33046;52.270;6.832;2023-06-01T12:50:16;20.30;76.80
47310;DHT22;33046;52.270;6.832;2023-06-01T12:52:23;20.40;78.80
47310;DHT22;33046;52.270;6.832;2023-06-01T12:54:30;20.30;77.70
47310;DHT22;33046;52.270;6.832;2023-06-01T12:56:37;20.40;78.00
47310;DHT22;33046;52.270;6.832;2023-06-01T12:58:43;20.30;78.20
47310;DHT22;33046;52.270;6.832;2023-06-01T13:00:50;20.20;78.30
47310;DHT22;33046;52.270;6.832;2023-06-01T13:03:02;20.20;78.10
47310;DHT22;33046;52.270;6.832;2023-06-01T13:05:09;20.20;78.80
47310;DHT22;33046;52.270;6.832;2023-06-01T13:07:17;20.20;80.00
47310;DHT22;33046;52.270;6.832;2023-06-01T13:09:24;20.10;78.70
47310;DHT22;33046;52.270;6.832;2023-06-01T13:11:31;20.00;79.00
47310;DHT22;33046;52.270;6.832;2023-06-01T13:13:38;20.00;79.90
47310;DHT22;33046;52.270;6.832;2023-06-01T13:15:45;20.00;79.30
47310;DHT22;33046;52.270;6.832;2023-06-01T13:17:52;20.00;80.00
47310;DHT22;33046;52.270;6.832;2023-06-01T13:19:59;19.90;80.00
47310;DHT22;33046;52.270;6.832;2023-06-01T13:22:06;19.80;80.30
47310;DHT22;33046;52.270;6.832;2023-06-01T13:24:14;19.70;81.20
47310;DHT22;33046;52.270;6.832;2023-06-01T13:26:21;19.80;81.30
47310;DHT22;33046;52.270;6.832;2023-06-01T13:28:28;19.60;81.00
47310;DHT22;33046;52.270;6.832;2023-06-01T13:30:35;19.60;81.50
47310;DHT22;33046;52.270;6.832;2023-06-01T13:32:42;19.60;81.20
47310;DHT22;33046;52.270;6.832;2023-06-01T13:34:48;19.50;81.80
47310;DHT22;33046;52.270;6.832;2023-06-01T13:36:55;19.40;82.00
47310;DHT22;33046;52.270;6.832;2023-06-01T13:39:02;19.40;82.00
47310;DHT22;33046;52.270;6.832;2023-06-01T13:41:10;19.40;82.00
47310;DHT22;33046;52.270;6.832;2023-06-01T13:43:17;19.40;81.70
47310;DHT22;33046;52.270;6.832;2023-06-01T13:45:24;19.40;81.50
47310;DHT22;33046;52.270;6.832;2023-06-01T13:47:31;19.30;81.20
47310;DHT22;33046;52.270;6.832;2023-06-01T13:49:38;19.40;81.70
47310;DHT22;33046;52.270;6.832;2023-06-01T13:51:45;19.30;82.00
47310;DHT22;33046;52.270;6.832;2023-06-01T13:53:52;19.40;82.00
47310;DHT22;33046;52.270;6.832;2023-06-01T13:55:58;19.30;81.40
47310;DHT22;33046;52.270;6.832;2023-06-01T13:58:07;19.20;81.40
47310;DHT22;33046;52.270;6.832;2023-06-01T14:00:14;19.30;80.70
47310;DHT22;33046;52.270;6.832;2023-06-01T14:02:24;19.40;80.70
47310;DHT22;33046;52.270;6.832;2023-06-01T14:04:31;19.40;80.70
47310;DHT22;33046;52.270;6.832;2023-06-01T14:06:38;19.30;80.20
47310;DHT22;33046;52.270;6.832;2023-06-01T14:08:45;19.30;80.70
47310;DHT22;33046;52.270;6.832;2023-06-01T14:10:52;19.30;79.80
47310;DHT22;33046;52.270;6.832;2023-06-01T14:12:59;19.30;79.70
47310;DHT22;33046;52.270;6.832;2023-06-01T14:15:08;19.40;79.30
47310;DHT22;33046;52.270;6.832;2023-06-01T14:17:15;19.40;78.50
47310;DHT22;33046;52.270;6.832;2023-06-01T14:19:22;19.30;77.80
47310;DHT22;33046;52.270;6.832;2023-06-01T14:21:29;19.40;77.90
47310;DHT22;33046;52.270;6.832;2023-06-01T14:23:36;19.30;77.80
47310;DHT22;33046;52.270;6.832;2023-06-01T14:25:43;19.30;78.30
47310;DHT22;33046;52.270;6.832;2023-06-01T14:27:50;19.20;78.20
47310;DHT22;33046;52.270;6.832;2023-06-01T14:29:56;19.30;78.30
47310;DHT22;33046;52.270;6.832;2023-06-01T14:32:05;19.40;79.00
47310;DHT22;33046;52.270;6.832;2023-06-01T14:34:12;19.40;78.60
47310;DHT22;33046;52.270;6.832;2023-06-01T14:36:19;19.40;78.20
47310;DHT22;33046;52.270;6.832;2023-06-01T14:38:27;19.40;78.80
47310;DHT22;33046;52.270;6.832;2023-06-01T14:40:34;19.50;78.90
47310;DHT22;33046;52.270;6.832;2023-06-01T14:42:40;19.50;78.10
47310;DHT22;33046;52.270;6.832;2023-06-01T14:44:47;19.50;77.40
47310;DHT22;33046;52.270;6.832;2023-06-01T14:47:00;19.60;77.80
47310;DHT22;33046;52.270;6.832;2023-06-01T14:49:08;19.60;77.30
47310;DHT22;33046;52.270;6.832;2023-06-01T14:51:15;19.60;77.60
47310;DHT22;33046;52.270;6.832;2023-06-01T14:53:22;19.60;77.10